createdAt,value
2017-12-17T00:00:09.056Z,7.93
2017-12-17T00:02:37.453Z,12.97
2017-12-17T00:05:05.812Z,12.97
2017-12-17T00:07:34.227Z,9.97
2017-12-17T00:10:03.248Z,14.67
2017-12-17T00:12:33.720Z,17.13
2017-12-17T00:15:03.269Z,9.07
2017-12-17T00:17:31.753Z,7.30
2017-12-17T00:20:01.948Z,7.10
2017-12-17T00:22:31.602Z,6.60
2017-12-17T00:24:59.907Z,6.40
2017-12-17T00:27:28.451Z,8.13
2017-12-17T00:29:56.865Z,6.60
2017-12-17T00:32:26.362Z,11.40
2017-12-17T00:34:54.658Z,7.23
2017-12-17T00:37:23.154Z,7.87
2017-12-17T00:39:52.339Z,5.50
2017-12-17T00:42:20.719Z,8.37
2017-12-17T00:44:49.128Z,7.80
2017-12-17T00:47:18.151Z,9.53
2017-12-17T00:49:46.777Z,11.57
2017-12-17T00:52:15.184Z,12.97
2017-12-17T00:54:45.376Z,8.73
2017-12-17T00:57:13.763Z,9.27
2017-12-17T00:59:44.069Z,8.93
2017-12-17T01:02:12.379Z,11.37
2017-12-17T01:04:41.658Z,12.83
2017-12-17T01:07:10.231Z,13.27
2017-12-17T01:09:39.634Z,10.20
2017-12-17T01:12:08.019Z,5.57
2017-12-17T01:14:36.434Z,7.40
2017-12-17T01:17:05.441Z,6.20
2017-12-17T01:19:34.442Z,6.37
2017-12-17T01:22:03.178Z,6.90
2017-12-17T01:24:31.446Z,6.43
2017-12-17T01:26:59.690Z,8.07
2017-12-17T01:29:29.158Z,5.60
2017-12-17T01:31:57.444Z,6.77
2017-12-17T01:34:26.234Z,8.40
2017-12-17T01:36:55.271Z,8.87
2017-12-17T01:39:23.535Z,5.93
2017-12-17T01:41:51.958Z,5.67
2017-12-17T01:44:20.305Z,6.40
2017-12-17T01:46:49.294Z,6.67
2017-12-17T01:49:17.539Z,6.70
2017-12-17T01:51:46.982Z,6.47
2017-12-17T01:54:17.306Z,6.70
2017-12-17T01:56:47.745Z,5.90
2017-12-17T01:59:16.035Z,6.50
2017-12-17T02:01:44.279Z,4.43
2017-12-17T02:04:12.523Z,6.50
2017-12-17T02:06:41.040Z,4.73
2017-12-17T02:09:10.611Z,4.73
2017-12-17T02:11:39.609Z,8.27
2017-12-17T02:14:08.634Z,6.20
2017-12-17T02:16:36.875Z,6.90
2017-12-17T02:19:05.322Z,9.87
2017-12-17T02:21:33.600Z,7.97
2017-12-17T02:24:01.847Z,7.77
2017-12-17T02:26:30.153Z,5.27
2017-12-17T02:28:58.650Z,7.60
2017-12-17T02:31:26.894Z,6.87
2017-12-17T02:33:55.154Z,5.50
2017-12-17T02:36:23.427Z,5.40
2017-12-17T02:38:51.738Z,5.17
2017-12-17T02:41:19.978Z,3.80
2017-12-17T02:43:48.249Z,6.30
2017-12-17T02:46:16.539Z,5.23
2017-12-17T02:48:44.771Z,5.90
2017-12-17T02:51:13.102Z,5.20
2017-12-17T02:53:41.335Z,6.10
2017-12-17T02:56:10.707Z,4.73
2017-12-17T02:58:38.974Z,5.70
2017-12-17T03:01:07.223Z,7.83
2017-12-17T03:03:35.471Z,9.40
2017-12-17T03:06:03.939Z,4.50
2017-12-17T03:08:32.946Z,7.80
2017-12-17T03:11:01.973Z,5.70
2017-12-17T03:13:30.661Z,3.07
2017-12-17T03:15:58.903Z,6.17
2017-12-17T03:18:27.143Z,7.10
2017-12-17T03:20:55.429Z,7.23
2017-12-17T03:23:23.654Z,4.63
2017-12-17T03:25:52.174Z,5.13
2017-12-17T03:28:20.438Z,5.47
2017-12-17T03:30:48.688Z,6.43
2017-12-17T03:33:17.031Z,4.50
2017-12-17T03:35:45.609Z,5.80
2017-12-17T03:38:13.854Z,7.43
2017-12-17T03:40:42.134Z,4.10
2017-12-17T03:43:10.870Z,3.60
2017-12-17T03:45:39.878Z,5.73
2017-12-17T03:48:08.126Z,5.27
2017-12-17T03:50:36.431Z,4.00
2017-12-17T03:53:04.662Z,5.23
2017-12-17T03:55:32.902Z,4.40
2017-12-17T03:58:01.222Z,4.70
2017-12-17T04:00:29.863Z,3.40
2017-12-17T04:02:58.170Z,3.53
2017-12-17T04:05:26.537Z,4.40
2017-12-17T04:07:55.873Z,5.27
2017-12-17T04:10:24.231Z,5.00
2017-12-17T04:12:52.534Z,5.33
2017-12-17T04:15:20.986Z,5.20
2017-12-17T04:17:49.227Z,6.67
2017-12-17T04:20:17.542Z,4.63
2017-12-17T04:22:45.788Z,5.17
2017-12-17T04:25:14.025Z,5.03
2017-12-17T04:27:42.291Z,3.67
2017-12-17T04:30:10.538Z,3.50
2017-12-17T04:32:38.775Z,2.90
2017-12-17T04:35:07.047Z,3.30
2017-12-17T04:37:35.474Z,6.03
2017-12-17T04:40:03.717Z,6.30
2017-12-17T04:42:32.031Z,5.20
2017-12-17T04:45:00.274Z,5.77
2017-12-17T04:47:28.685Z,5.10
2017-12-17T04:49:57.364Z,5.67
2017-12-17T04:52:25.949Z,5.27
2017-12-17T04:54:54.166Z,4.50
2017-12-17T04:57:23.195Z,3.83
2017-12-17T04:59:51.503Z,4.60
2017-12-17T05:02:19.759Z,4.57
2017-12-17T05:04:48.343Z,3.30
2017-12-17T05:07:16.644Z,3.00
2017-12-17T05:09:45.027Z,4.87
2017-12-17T05:12:13.294Z,5.57
2017-12-17T05:14:41.530Z,5.20
2017-12-17T05:17:09.774Z,5.17
2017-12-17T05:19:38.050Z,5.40
2017-12-17T05:22:06.281Z,4.37
2017-12-17T05:24:34.518Z,3.97
2017-12-17T05:27:03.447Z,3.13
2017-12-17T05:29:31.682Z,3.83
2017-12-17T05:32:00.323Z,3.97
2017-12-17T05:34:28.562Z,3.23
2017-12-17T05:36:56.946Z,4.17
2017-12-17T05:39:25.186Z,4.50
2017-12-17T05:41:53.448Z,4.50
2017-12-17T05:44:21.686Z,4.70
2017-12-17T05:46:49.924Z,4.03
2017-12-17T05:49:18.380Z,3.20
2017-12-17T05:51:46.606Z,3.80
2017-12-17T05:54:15.847Z,3.10
2017-12-17T05:56:44.114Z,2.97
2017-12-17T05:59:12.370Z,3.30
2017-12-17T06:01:40.682Z,3.10
2017-12-17T06:04:08.944Z,3.13
2017-12-17T06:06:37.183Z,3.53
2017-12-17T06:09:05.426Z,3.97
2017-12-17T06:11:34.266Z,3.63
2017-12-17T06:14:02.508Z,4.30
2017-12-17T06:16:30.751Z,4.30
2017-12-17T06:18:59.078Z,4.70
2017-12-17T06:21:27.403Z,5.13
2017-12-17T06:23:55.646Z,3.00
2017-12-17T06:26:23.918Z,4.57
2017-12-17T06:28:52.162Z,4.37
2017-12-17T06:31:20.618Z,3.47
2017-12-17T06:33:49.171Z,4.20
2017-12-17T06:36:17.426Z,3.30
2017-12-17T06:38:46.424Z,3.67
2017-12-17T06:41:14.686Z,3.53
2017-12-17T06:43:42.930Z,3.90
2017-12-17T06:46:11.162Z,4.03
2017-12-17T06:48:39.482Z,3.00
2017-12-17T06:51:07.723Z,3.47
2017-12-17T06:53:35.970Z,3.90
2017-12-17T06:56:05.179Z,4.13
2017-12-17T06:58:33.403Z,4.00
2017-12-17T07:01:01.650Z,4.80
2017-12-17T07:03:29.910Z,2.30
2017-12-17T07:05:58.167Z,4.10
2017-12-17T07:08:26.500Z,4.97
2017-12-17T07:10:54.741Z,4.50
2017-12-17T07:13:22.983Z,4.23
2017-12-17T07:15:51.226Z,3.83
2017-12-17T07:18:19.904Z,3.83
2017-12-17T07:20:48.139Z,4.47
2017-12-17T07:23:16.451Z,3.10
2017-12-17T07:25:44.697Z,3.57
2017-12-17T07:28:13.702Z,3.80
2017-12-17T07:30:41.946Z,4.97
2017-12-17T07:33:10.223Z,4.93
2017-12-17T07:35:38.474Z,4.63
2017-12-17T07:38:08.074Z,4.37
2017-12-17T07:40:36.852Z,3.63
2017-12-17T07:43:05.094Z,5.20
2017-12-17T07:45:33.339Z,3.43
2017-12-17T07:48:01.609Z,4.50
2017-12-17T07:50:30.783Z,3.37
2017-12-17T07:52:59.901Z,3.10
2017-12-17T07:55:28.163Z,3.87
2017-12-17T07:57:56.399Z,4.50
2017-12-17T08:00:24.642Z,4.70
2017-12-17T08:02:53.178Z,5.13
2017-12-17T08:05:21.414Z,4.17
2017-12-17T08:07:50.490Z,4.60
2017-12-17T08:10:19.047Z,4.60
2017-12-17T08:12:47.262Z,4.80
2017-12-17T08:15:17.310Z,3.40
2017-12-17T08:17:45.575Z,4.77
2017-12-17T08:20:14.583Z,5.07
2017-12-17T08:22:42.825Z,5.67
2017-12-17T08:25:11.157Z,4.13
2017-12-17T08:27:39.419Z,4.17
2017-12-17T08:30:07.654Z,5.00
2017-12-17T08:32:35.916Z,4.23
2017-12-17T08:35:04.170Z,4.67
2017-12-17T08:37:32.400Z,5.00
2017-12-17T08:40:01.614Z,4.30
2017-12-17T08:42:29.852Z,4.87
2017-12-17T08:44:58.090Z,3.93
2017-12-17T08:47:27.397Z,4.63
2017-12-17T08:49:55.626Z,4.33
2017-12-17T08:52:24.067Z,4.93
2017-12-17T08:54:52.336Z,4.30
2017-12-17T08:57:20.575Z,4.10
2017-12-17T08:59:48.811Z,3.03
2017-12-17T09:02:17.080Z,4.43
2017-12-17T09:04:45.339Z,4.10
2017-12-17T09:07:13.578Z,3.80
2017-12-17T09:09:42.200Z,5.10
2017-12-17T09:12:10.833Z,4.43
2017-12-17T09:14:39.206Z,4.13
2017-12-17T09:17:08.234Z,4.70
2017-12-17T09:19:36.474Z,4.63
2017-12-17T09:22:04.711Z,2.80
2017-12-17T09:24:32.974Z,4.47
2017-12-17T09:27:01.216Z,3.27
2017-12-17T09:29:29.462Z,4.40
2017-12-17T09:31:57.877Z,3.07
2017-12-17T09:34:26.886Z,2.80
2017-12-17T09:36:55.127Z,3.93
2017-12-17T09:39:23.971Z,3.00
2017-12-17T09:41:53.803Z,3.37
2017-12-17T09:44:22.183Z,3.27
2017-12-17T09:46:50.591Z,3.03
2017-12-17T09:49:20.783Z,3.80
2017-12-17T09:51:50.087Z,2.40
2017-12-17T09:54:18.665Z,3.00
2017-12-17T09:56:46.883Z,4.20
2017-12-17T09:59:18.060Z,3.70
2017-12-17T10:01:46.309Z,3.80
2017-12-17T10:04:14.751Z,3.10
2017-12-17T10:06:43.127Z,4.00
2017-12-17T10:09:11.526Z,2.83
2017-12-17T10:11:39.766Z,4.00
2017-12-17T10:14:08.198Z,3.60
2017-12-17T10:16:36.719Z,3.63
2017-12-17T10:19:04.958Z,4.27
2017-12-17T10:21:33.394Z,3.53
2017-12-17T10:24:01.660Z,3.80
2017-12-17T10:26:31.082Z,3.27
2017-12-17T10:28:59.375Z,2.50
2017-12-17T10:31:27.646Z,3.50
2017-12-17T10:33:55.905Z,2.57
2017-12-17T10:36:24.292Z,3.20
2017-12-17T10:38:52.751Z,2.60
2017-12-17T10:41:20.986Z,3.63
2017-12-17T10:43:49.227Z,3.10
2017-12-17T10:46:17.491Z,2.60
2017-12-17T10:48:45.870Z,3.07
2017-12-17T10:51:15.190Z,2.27
2017-12-17T10:53:43.575Z,3.40
2017-12-17T10:56:11.932Z,2.97
2017-12-17T10:58:40.251Z,3.97
2017-12-17T11:01:08.555Z,3.00
2017-12-17T11:03:36.802Z,2.20
2017-12-17T11:06:05.810Z,2.77
2017-12-17T11:08:34.834Z,3.00
2017-12-17T11:11:04.018Z,3.60
2017-12-17T11:13:32.430Z,3.30
2017-12-17T11:16:01.771Z,2.80
2017-12-17T11:18:31.950Z,3.00
2017-12-17T11:21:00.194Z,2.53
2017-12-17T11:23:28.530Z,3.43
2017-12-17T11:25:56.782Z,3.10
2017-12-17T11:28:25.026Z,2.87
2017-12-17T11:30:53.282Z,2.80
2017-12-17T11:33:22.326Z,3.37
2017-12-17T11:35:50.615Z,3.40
2017-12-17T11:38:18.902Z,3.00
2017-12-17T11:40:47.139Z,2.37
2017-12-17T11:43:15.383Z,3.60
2017-12-17T11:45:43.713Z,2.60
2017-12-17T11:48:11.948Z,3.67
2017-12-17T11:50:40.274Z,3.70
2017-12-17T11:53:08.683Z,2.50
2017-12-17T11:55:36.919Z,2.10
2017-12-17T11:58:06.334Z,3.27
2017-12-17T12:00:34.738Z,2.67
2017-12-17T12:03:03.761Z,2.87
2017-12-17T12:05:32.267Z,3.47
2017-12-17T12:08:00.907Z,3.73
2017-12-17T12:10:29.154Z,2.97
2017-12-17T12:12:57.558Z,3.50
2017-12-17T12:15:25.934Z,3.73
2017-12-17T12:17:57.050Z,3.27
2017-12-17T12:20:25.429Z,4.53
2017-12-17T12:22:53.838Z,3.70
2017-12-17T12:25:23.946Z,4.03
2017-12-17T12:27:52.167Z,4.63
2017-12-17T12:30:20.650Z,2.60
2017-12-17T12:32:48.886Z,3.90
2017-12-17T12:35:21.261Z,3.60
2017-12-17T12:37:50.428Z,3.80
2017-12-17T12:40:18.650Z,3.80
2017-12-17T12:42:47.930Z,4.80
2017-12-17T12:45:16.293Z,4.00
2017-12-17T12:47:44.670Z,3.23
2017-12-17T12:50:13.118Z,3.23
2017-12-17T12:52:41.426Z,3.73
2017-12-17T12:55:09.810Z,4.50
2017-12-17T12:57:38.094Z,3.90
2017-12-17T13:00:06.574Z,3.50
2017-12-17T13:02:35.855Z,3.37
2017-12-17T13:05:04.120Z,4.77
2017-12-17T13:07:32.378Z,5.63
2017-12-17T13:10:01.619Z,5.07
2017-12-17T13:12:30.167Z,4.77
2017-12-17T13:14:58.572Z,5.07
2017-12-17T13:17:26.795Z,4.50
2017-12-17T13:19:55.822Z,4.20
2017-12-17T13:22:25.051Z,4.70
2017-12-17T13:24:53.286Z,4.13
2017-12-17T13:27:21.782Z,3.80
2017-12-17T13:29:50.019Z,4.17
2017-12-17T13:32:19.022Z,4.70
2017-12-17T13:34:48.250Z,4.27
2017-12-17T13:37:16.519Z,4.83
2017-12-17T13:39:44.758Z,4.03
2017-12-17T13:42:13.030Z,4.50
2017-12-17T13:44:42.043Z,4.30
2017-12-17T13:47:11.803Z,5.00
2017-12-17T13:49:40.049Z,4.30
2017-12-17T13:52:08.295Z,4.90
2017-12-17T13:54:36.946Z,4.77
2017-12-17T13:57:05.255Z,5.03
2017-12-17T13:59:33.530Z,3.80
2017-12-17T14:02:02.534Z,5.03
2017-12-17T14:04:31.570Z,4.30
2017-12-17T14:06:59.808Z,4.97
2017-12-17T14:09:28.050Z,4.70
2017-12-17T14:11:56.314Z,4.10
2017-12-17T14:14:24.546Z,4.70
2017-12-17T14:16:52.778Z,4.53
2017-12-17T14:19:21.568Z,4.10
2017-12-17T14:21:49.790Z,4.00
2017-12-17T14:24:18.411Z,4.20
2017-12-17T14:26:46.662Z,4.30
2017-12-17T14:29:14.905Z,5.20
2017-12-17T14:31:43.370Z,4.70
2017-12-17T14:34:11.642Z,4.40
2017-12-17T14:36:40.148Z,3.80
2017-12-17T14:39:08.638Z,4.57
2017-12-17T14:41:37.559Z,5.43
2017-12-17T14:44:05.803Z,5.23
2017-12-17T14:46:34.046Z,4.33
2017-12-17T14:49:02.330Z,3.67
2017-12-17T14:51:30.566Z,4.60
2017-12-17T14:53:58.808Z,4.10
2017-12-17T14:56:27.858Z,4.40
2017-12-17T14:58:56.102Z,4.13
2017-12-17T15:01:24.676Z,5.10
2017-12-17T15:03:53.907Z,4.23
2017-12-17T15:06:22.131Z,4.10
2017-12-17T15:08:50.372Z,4.50
2017-12-17T15:11:18.665Z,5.40
2017-12-17T15:13:46.926Z,4.90
2017-12-17T15:16:15.192Z,4.63
2017-12-17T15:18:43.434Z,4.40
2017-12-17T15:21:12.158Z,4.30
2017-12-17T15:23:42.430Z,4.50
2017-12-17T15:26:12.690Z,4.50
2017-12-17T15:28:40.920Z,5.07
2017-12-17T15:31:09.390Z,5.20
2017-12-17T15:33:37.774Z,4.13
2017-12-17T15:36:06.119Z,3.87
2017-12-17T15:38:34.550Z,5.23
2017-12-17T15:41:03.580Z,3.93
2017-12-17T15:43:31.835Z,3.93
2017-12-17T15:46:00.261Z,4.60
2017-12-17T15:48:29.034Z,3.43
2017-12-17T15:50:57.258Z,2.70
2017-12-17T15:53:25.715Z,3.37
2017-12-17T15:55:53.983Z,4.83
2017-12-17T15:58:22.226Z,4.20
2017-12-17T16:00:54.736Z,3.30
2017-12-17T16:03:22.998Z,4.80
2017-12-17T16:05:51.290Z,3.10
2017-12-17T16:08:19.532Z,4.27
2017-12-17T16:10:47.943Z,3.63
2017-12-17T16:13:16.184Z,4.60
2017-12-17T16:15:44.428Z,2.63
2017-12-17T16:18:12.690Z,4.23
2017-12-17T16:20:41.144Z,2.43
2017-12-17T16:23:09.362Z,3.70
2017-12-17T16:25:38.398Z,4.83
2017-12-17T16:28:06.645Z,4.30
2017-12-17T16:30:34.881Z,3.30
2017-12-17T16:33:03.539Z,5.00
2017-12-17T16:35:32.818Z,4.13
2017-12-17T16:38:01.068Z,4.60
2017-12-17T16:40:29.327Z,5.17
2017-12-17T16:42:57.573Z,3.70
2017-12-17T16:45:26.887Z,4.80
2017-12-17T16:47:55.153Z,4.23
2017-12-17T16:50:23.605Z,4.57
2017-12-17T16:52:51.904Z,5.57
2017-12-17T16:55:20.238Z,5.73
2017-12-17T16:57:48.478Z,4.60
2017-12-17T17:00:18.485Z,6.03
2017-12-17T17:02:46.822Z,4.77
2017-12-17T17:05:16.061Z,4.50
2017-12-17T17:07:44.458Z,4.80
2017-12-17T17:10:13.788Z,5.40
2017-12-17T17:12:42.788Z,4.43
2017-12-17T17:15:11.866Z,5.20
2017-12-17T17:17:41.116Z,4.40
2017-12-17T17:20:10.367Z,4.70
2017-12-17T17:22:38.718Z,4.77
2017-12-17T17:25:07.302Z,5.07
2017-12-17T17:27:39.613Z,4.00
2017-12-17T17:30:07.900Z,4.03
2017-12-17T17:32:36.220Z,5.47
2017-12-17T17:35:04.603Z,5.50
2017-12-17T17:37:33.091Z,4.90
2017-12-17T17:40:01.570Z,4.63
2017-12-17T17:42:29.911Z,5.40
2017-12-17T17:44:58.184Z,5.30
2017-12-17T17:47:27.427Z,6.03
2017-12-17T17:49:55.815Z,6.03
2017-12-17T17:52:28.202Z,6.80
2017-12-17T17:54:56.562Z,6.70
2017-12-17T17:57:24.890Z,6.73
2017-12-17T17:59:53.229Z,6.50
2017-12-17T18:02:23.027Z,6.37
2017-12-17T18:04:52.216Z,4.90
2017-12-17T18:07:20.648Z,6.43
2017-12-17T18:09:54.711Z,6.00
2017-12-17T18:12:22.964Z,6.27
2017-12-17T18:14:51.203Z,7.37
2017-12-17T18:17:19.438Z,7.60
2017-12-17T18:19:48.963Z,7.53
2017-12-17T18:22:17.323Z,4.50
2017-12-17T18:24:46.624Z,6.40
2017-12-17T18:27:15.034Z,5.33
2017-12-17T18:29:43.274Z,7.90
2017-12-17T18:32:11.522Z,8.80
2017-12-17T18:34:39.890Z,9.30
2017-12-17T18:37:08.225Z,7.63
2017-12-17T18:39:36.602Z,8.60
2017-12-17T18:42:06.012Z,9.33
2017-12-17T18:44:34.273Z,9.30
2017-12-17T18:47:02.518Z,7.70
2017-12-17T18:49:30.794Z,8.90
2017-12-17T18:51:59.725Z,8.40
2017-12-17T18:54:28.303Z,8.70
2017-12-17T18:56:56.564Z,8.70
2017-12-17T18:59:24.922Z,8.83
2017-12-17T19:01:53.250Z,8.73
2017-12-17T19:04:21.574Z,8.90
2017-12-17T19:06:49.855Z,7.63
2017-12-17T19:09:18.114Z,8.60
2017-12-17T19:11:47.274Z,9.10
2017-12-17T19:14:15.498Z,8.03
2017-12-17T19:16:43.826Z,8.70
2017-12-17T19:19:12.098Z,9.97
2017-12-17T19:21:40.366Z,9.50
2017-12-17T19:24:08.633Z,9.60
2017-12-17T19:26:38.044Z,9.83
2017-12-17T19:29:06.290Z,9.70
2017-12-17T19:31:34.723Z,10.37
2017-12-17T19:34:02.995Z,9.10
2017-12-17T19:36:31.255Z,10.03
2017-12-17T19:38:59.602Z,8.63
2017-12-17T19:41:27.948Z,8.83
2017-12-17T19:43:58.150Z,7.83
2017-12-17T19:46:26.526Z,9.60
2017-12-17T19:48:55.911Z,8.87
2017-12-17T19:51:25.141Z,8.80
2017-12-17T19:53:53.510Z,9.03
2017-12-17T19:56:21.914Z,10.00
2017-12-17T19:58:50.939Z,9.50
2017-12-17T20:01:19.182Z,7.60
2017-12-17T20:03:47.756Z,8.13
2017-12-17T20:06:15.974Z,8.10
2017-12-17T20:08:44.214Z,7.83
2017-12-17T20:11:12.974Z,8.80
2017-12-17T20:13:41.195Z,9.10
2017-12-17T20:16:10.207Z,7.93
2017-12-17T20:18:38.467Z,7.37
2017-12-17T20:21:06.922Z,8.70
2017-12-17T20:23:35.290Z,7.93
2017-12-17T20:26:04.646Z,7.07
2017-12-17T20:28:32.970Z,9.80
2017-12-17T20:31:01.351Z,7.00
2017-12-17T20:33:29.798Z,8.70
2017-12-17T20:35:58.106Z,9.37
2017-12-17T20:38:26.548Z,9.50
2017-12-17T20:40:56.742Z,9.67
2017-12-17T20:43:25.766Z,9.90
2017-12-17T20:45:54.086Z,9.87
2017-12-17T20:48:22.491Z,9.47
2017-12-17T20:50:51.766Z,9.87
2017-12-17T20:53:20.759Z,9.90
2017-12-17T20:55:49.223Z,9.70
2017-12-17T20:58:17.514Z,10.40
2017-12-17T21:00:46.084Z,10.90
2017-12-17T21:03:14.349Z,10.83
2017-12-17T21:05:44.815Z,9.97
2017-12-17T21:08:13.209Z,11.30
2017-12-17T21:10:41.652Z,12.37
2017-12-17T21:13:10.890Z,9.97
2017-12-17T21:15:42.142Z,12.17
2017-12-17T21:18:11.641Z,10.70
2017-12-17T21:20:41.881Z,9.90
2017-12-17T21:23:10.242Z,6.73
2017-12-17T21:25:41.346Z,10.60
2017-12-17T21:28:10.004Z,9.27
2017-12-17T21:30:38.450Z,10.10
2017-12-17T21:33:07.462Z,7.40
2017-12-17T21:35:36.310Z,10.20
2017-12-17T21:38:04.691Z,10.97
2017-12-17T21:40:33.243Z,11.30
2017-12-17T21:43:01.625Z,10.50
2017-12-17T21:45:30.011Z,9.57
2017-12-17T21:47:58.312Z,10.20
2017-12-17T21:50:26.680Z,9.20
2017-12-17T21:52:54.946Z,8.40
2017-12-17T21:55:24.092Z,5.67
2017-12-17T21:57:52.433Z,9.20
2017-12-17T22:00:20.769Z,9.93
2017-12-17T22:02:49.638Z,7.77
2017-12-17T22:05:18.007Z,9.00
2017-12-17T22:07:46.515Z,9.43
2017-12-17T22:10:16.100Z,10.10
2017-12-17T22:12:44.747Z,9.77
2017-12-17T22:15:13.350Z,8.67
2017-12-17T22:17:41.609Z,11.23
2017-12-17T22:20:09.885Z,7.40
2017-12-17T22:22:38.834Z,8.10
2017-12-17T22:25:07.112Z,9.90
2017-12-17T22:27:35.460Z,10.20
2017-12-17T22:30:03.862Z,10.17
2017-12-17T22:32:32.216Z,6.40
2017-12-17T22:35:00.612Z,9.30
2017-12-17T22:37:29.036Z,9.57
2017-12-17T22:39:57.548Z,9.67
2017-12-17T22:42:25.825Z,10.80
2017-12-17T22:44:54.183Z,10.53
2017-12-17T22:47:25.563Z,8.57
2017-12-17T22:49:55.843Z,10.27
2017-12-17T22:52:25.062Z,9.80
2017-12-17T22:54:55.906Z,12.90
2017-12-17T22:57:24.183Z,13.00
2017-12-17T22:59:53.586Z,12.47
2017-12-17T23:02:21.848Z,11.50
2017-12-17T23:04:50.180Z,10.20
2017-12-17T23:07:19.646Z,11.83
2017-12-17T23:09:48.024Z,12.60
2017-12-17T23:12:16.427Z,11.10
2017-12-17T23:14:45.698Z,9.93
2017-12-17T23:17:14.079Z,11.47
2017-12-17T23:19:42.509Z,11.30
2017-12-17T23:22:11.506Z,10.40
2017-12-17T23:24:39.837Z,12.27
2017-12-17T23:27:08.604Z,11.00
2017-12-17T23:29:36.858Z,12.63
2017-12-17T23:32:05.098Z,12.20
2017-12-17T23:34:33.374Z,11.40
2017-12-17T23:37:01.707Z,12.07
2017-12-17T23:39:30.106Z,12.30
2017-12-17T23:41:58.381Z,12.30
2017-12-17T23:44:26.653Z,11.40
2017-12-17T23:46:54.939Z,11.80
2017-12-17T23:49:27.561Z,11.30
2017-12-17T23:51:55.763Z,12.00
2017-12-17T23:54:24.076Z,11.50
2017-12-17T23:56:53.098Z,13.30
2017-12-17T23:59:26.052Z,11.67
